sensor_id;sensor_type;location;lat;lon;timestamp;P1;durP1;ratioP1;P2;durP2;ratioP2
43606;SDS011;29197;44.788;10.366;2023-05-10T00:00:19;10.20;;;4.50;;
43606;SDS011;29197;44.788;10.366;2023-05-10T00:03:10;4.70;;;4.22;;
43606;SDS011;29197;44.788;10.366;2023-05-10T00:05:59;6.63;;;4.10;;
43606;SDS011;29197;44.788;10.366;2023-05-10T00:08:47;5.13;;;4.03;;
43606;SDS011;29197;44.788;10.366;2023-05-10T00:11:36;4.55;;;4.05;;
43606;SDS011;29197;44.788;10.366;2023-05-10T00:14:24;5.47;;;3.97;;
43606;SDS011;29197;44.788;10.366;2023-05-10T00:17:13;4.25;;;3.83;;
43606;SDS011;29197;44.788;10.366;2023-05-10T00:20:03;4.47;;;3.85;;
43606;SDS011;29197;44.788;10.366;2023-05-10T00:22:52;5.30;;;3.80;;
43606;SDS011;29197;44.788;10.366;2023-05-10T00:25:41;5.13;;;3.80;;
43606;SDS011;29197;44.788;10.366;2023-05-10T00:28:29;5.05;;;4.57;;
43606;SDS011;29197;44.788;10.366;2023-05-10T00:31:18;5.05;;;4.22;;
43606;SDS011;29197;44.788;10.366;2023-05-10T00:34:07;11.98;;;5.15;;
43606;SDS011;29197;44.788;10.366;2023-05-10T00:36:57;5.07;;;4.40;;
43606;SDS011;29197;44.788;10.366;2023-05-10T00:39:45;7.28;;;5.60;;
43606;SDS011;29197;44.788;10.366;2023-05-10T00:42:34;7.00;;;5.75;;
43606;SDS011;29197;44.788;10.366;2023-05-10T00:45:23;6.03;;;5.43;;
43606;SDS011;29197;44.788;10.366;2023-05-10T00:48:12;6.03;;;5.40;;
43606;SDS011;29197;44.788;10.366;2023-05-10T00:51:01;7.17;;;5.70;;
43606;SDS011;29197;44.788;10.366;2023-05-10T00:53:52;5.90;;;4.97;;
43606;SDS011;29197;44.788;10.366;2023-05-10T00:56:42;7.20;;;5.85;;
43606;SDS011;29197;44.788;10.366;2023-05-10T00:59:35;6.45;;;5.75;;
43606;SDS011;29197;44.788;10.366;2023-05-10T01:02:24;7.05;;;6.35;;
43606;SDS011;29197;44.788;10.366;2023-05-10T01:05:13;8.25;;;6.30;;
43606;SDS011;29197;44.788;10.366;2023-05-10T01:08:02;7.68;;;6.20;;
43606;SDS011;29197;44.788;10.366;2023-05-10T01:10:52;8.43;;;7.37;;
43606;SDS011;29197;44.788;10.366;2023-05-10T01:13:41;7.03;;;6.32;;
43606;SDS011;29197;44.788;10.366;2023-05-10T01:16:31;7.90;;;6.88;;
43606;SDS011;29197;44.788;10.366;2023-05-10T01:19:21;7.03;;;6.07;;
43606;SDS011;29197;44.788;10.366;2023-05-10T01:22:14;8.07;;;7.03;;
43606;SDS011;29197;44.788;10.366;2023-05-10T01:31:33;7.43;;;6.47;;
43606;SDS011;29197;44.788;10.366;2023-05-10T01:34:29;7.60;;;6.28;;
43606;SDS011;29197;44.788;10.366;2023-05-10T01:37:25;6.75;;;6.05;;
43606;SDS011;29197;44.788;10.366;2023-05-10T01:40:18;6.57;;;5.87;;
43606;SDS011;29197;44.788;10.366;2023-05-10T01:43:10;7.22;;;6.30;;
43606;SDS011;29197;44.788;10.366;2023-05-10T01:46:02;8.55;;;6.53;;
43606;SDS011;29197;44.788;10.366;2023-05-10T01:48:57;6.97;;;6.07;;
43606;SDS011;29197;44.788;10.366;2023-05-10T01:51:51;6.20;;;5.60;;
43606;SDS011;29197;44.788;10.366;2023-05-10T01:54:43;7.07;;;5.55;;
43606;SDS011;29197;44.788;10.366;2023-05-10T01:57:33;6.60;;;5.90;;
43606;SDS011;29197;44.788;10.366;2023-05-10T02:00:22;6.88;;;5.88;;
43606;SDS011;29197;44.788;10.366;2023-05-10T02:03:12;7.32;;;6.15;;
43606;SDS011;29197;44.788;10.366;2023-05-10T02:06:01;6.65;;;5.85;;
43606;SDS011;29197;44.788;10.366;2023-05-10T02:08:52;7.40;;;6.00;;
43606;SDS011;29197;44.788;10.366;2023-05-10T02:11:42;5.70;;;5.10;;
43606;SDS011;29197;44.788;10.366;2023-05-10T02:14:32;6.38;;;5.78;;
43606;SDS011;29197;44.788;10.366;2023-05-10T02:17:22;6.65;;;5.55;;
43606;SDS011;29197;44.788;10.366;2023-05-10T02:20:12;6.47;;;5.45;;
43606;SDS011;29197;44.788;10.366;2023-05-10T02:23:01;6.72;;;5.88;;
43606;SDS011;29197;44.788;10.366;2023-05-10T02:25:53;6.63;;;5.25;;
43606;SDS011;29197;44.788;10.366;2023-05-10T02:28:42;6.55;;;4.88;;
43606;SDS011;29197;44.788;10.366;2023-05-10T02:31:31;6.30;;;5.22;;
43606;SDS011;29197;44.788;10.366;2023-05-10T02:34:20;7.50;;;6.47;;
43606;SDS011;29197;44.788;10.366;2023-05-10T02:37:09;6.35;;;4.82;;
43606;SDS011;29197;44.788;10.366;2023-05-10T02:39:59;5.03;;;4.30;;
43606;SDS011;29197;44.788;10.366;2023-05-10T02:42:52;5.28;;;4.53;;
43606;SDS011;29197;44.788;10.366;2023-05-10T02:45:40;5.18;;;4.35;;
43606;SDS011;29197;44.788;10.366;2023-05-10T02:48:30;6.38;;;5.00;;
43606;SDS011;29197;44.788;10.366;2023-05-10T02:51:18;5.15;;;4.15;;
43606;SDS011;29197;44.788;10.366;2023-05-10T02:54:11;5.07;;;4.07;;
43606;SDS011;29197;44.788;10.366;2023-05-10T02:57:01;5.97;;;4.37;;
43606;SDS011;29197;44.788;10.366;2023-05-10T02:59:53;4.75;;;4.18;;
43606;SDS011;29197;44.788;10.366;2023-05-10T03:02:42;5.57;;;3.90;;
43606;SDS011;29197;44.788;10.366;2023-05-10T03:05:31;4.35;;;3.95;;
43606;SDS011;29197;44.788;10.366;2023-05-10T03:08:19;3.78;;;3.45;;
43606;SDS011;29197;44.788;10.366;2023-05-10T03:11:15;4.33;;;3.80;;
43606;SDS011;29197;44.788;10.366;2023-05-10T03:14:14;4.25;;;3.70;;
43606;SDS011;29197;44.788;10.366;2023-05-10T03:17:13;4.10;;;3.13;;
43606;SDS011;29197;44.788;10.366;2023-05-10T03:20:08;4.13;;;3.67;;
43606;SDS011;29197;44.788;10.366;2023-05-10T03:23:00;4.53;;;3.58;;
43606;SDS011;29197;44.788;10.366;2023-05-10T03:25:52;5.28;;;4.18;;
43606;SDS011;29197;44.788;10.366;2023-05-10T03:28:41;4.75;;;4.20;;
43606;SDS011;29197;44.788;10.366;2023-05-10T03:31:30;4.95;;;4.45;;
43606;SDS011;29197;44.788;10.366;2023-05-10T03:34:24;5.03;;;3.90;;
43606;SDS011;29197;44.788;10.366;2023-05-10T03:37:13;5.28;;;3.90;;
43606;SDS011;29197;44.788;10.366;2023-05-10T03:40:02;4.93;;;3.65;;
43606;SDS011;29197;44.788;10.366;2023-05-10T03:42:51;4.50;;;3.50;;
43606;SDS011;29197;44.788;10.366;2023-05-10T03:45:39;4.78;;;4.13;;
43606;SDS011;29197;44.788;10.366;2023-05-10T03:48:28;4.25;;;3.85;;
43606;SDS011;29197;44.788;10.366;2023-05-10T03:51:18;4.20;;;3.80;;
43606;SDS011;29197;44.788;10.366;2023-05-10T03:54:07;6.28;;;3.80;;
43606;SDS011;29197;44.788;10.366;2023-05-10T03:56:55;4.60;;;3.40;;
43606;SDS011;29197;44.788;10.366;2023-05-10T03:59:44;4.65;;;3.90;;
43606;SDS011;29197;44.788;10.366;2023-05-10T04:02:32;4.47;;;3.70;;
43606;SDS011;29197;44.788;10.366;2023-05-10T04:05:21;5.05;;;3.85;;
43606;SDS011;29197;44.788;10.366;2023-05-10T04:08:11;3.80;;;3.45;;
43606;SDS011;29197;44.788;10.366;2023-05-10T04:11:04;4.00;;;3.60;;
43606;SDS011;29197;44.788;10.366;2023-05-10T04:13:54;3.55;;;3.00;;
43606;SDS011;29197;44.788;10.366;2023-05-10T04:16:43;3.33;;;3.03;;
43606;SDS011;29197;44.788;10.366;2023-05-10T04:19:31;3.38;;;2.85;;
43606;SDS011;29197;44.788;10.366;2023-05-10T04:22:20;4.47;;;3.67;;
43606;SDS011;29197;44.788;10.366;2023-05-10T04:25:10;4.32;;;3.45;;
43606;SDS011;29197;44.788;10.366;2023-05-10T04:27:59;3.97;;;3.55;;
43606;SDS011;29197;44.788;10.366;2023-05-10T04:30:47;4.63;;;3.67;;
43606;SDS011;29197;44.788;10.366;2023-05-10T04:33:36;3.97;;;3.30;;
43606;SDS011;29197;44.788;10.366;2023-05-10T04:36:25;3.70;;;3.30;;
43606;SDS011;29197;44.788;10.366;2023-05-10T04:39:14;3.25;;;2.95;;
43606;SDS011;29197;44.788;10.366;2023-05-10T04:42:04;3.35;;;2.80;;
43606;SDS011;29197;44.788;10.366;2023-05-10T04:44:52;3.30;;;3.00;;
43606;SDS011;29197;44.788;10.366;2023-05-10T04:47:41;3.83;;;3.43;;
43606;SDS011;29197;44.788;10.366;2023-05-10T04:50:29;5.03;;;3.80;;
43606;SDS011;29197;44.788;10.366;2023-05-10T04:53:18;4.45;;;3.60;;
43606;SDS011;29197;44.788;10.366;2023-05-10T04:56:06;3.80;;;3.40;;
43606;SDS011;29197;44.788;10.366;2023-05-10T04:58:56;4.40;;;3.63;;
43606;SDS011;29197;44.788;10.366;2023-05-10T05:01:45;3.90;;;3.30;;
43606;SDS011;29197;44.788;10.366;2023-05-10T05:04:33;4.00;;;3.13;;
43606;SDS011;29197;44.788;10.366;2023-05-10T05:07:22;3.27;;;2.97;;
43606;SDS011;29197;44.788;10.366;2023-05-10T05:10:10;4.28;;;3.67;;
43606;SDS011;29197;44.788;10.366;2023-05-10T05:12:59;3.20;;;2.90;;
43606;SDS011;29197;44.788;10.366;2023-05-10T05:15:49;3.00;;;2.70;;
43606;SDS011;29197;44.788;10.366;2023-05-10T05:18:37;4.15;;;3.75;;
43606;SDS011;29197;44.788;10.366;2023-05-10T05:21:26;3.92;;;3.60;;
43606;SDS011;29197;44.788;10.366;2023-05-10T05:24:15;4.20;;;3.70;;
43606;SDS011;29197;44.788;10.366;2023-05-10T05:27:03;4.22;;;3.50;;
43606;SDS011;29197;44.788;10.366;2023-05-10T05:29:52;7.35;;;4.78;;
43606;SDS011;29197;44.788;10.366;2023-05-10T05:32:42;6.25;;;3.65;;
43606;SDS011;29197;44.788;10.366;2023-05-10T05:35:31;3.78;;;3.40;;
43606;SDS011;29197;44.788;10.366;2023-05-10T05:38:20;3.97;;;3.45;;
43606;SDS011;29197;44.788;10.366;2023-05-10T05:41:08;4.13;;;3.40;;
43606;SDS011;29197;44.788;10.366;2023-05-10T05:43:57;3.63;;;3.10;;
43606;SDS011;29197;44.788;10.366;2023-05-10T05:46:45;4.88;;;3.95;;
43606;SDS011;29197;44.788;10.366;2023-05-10T05:49:35;3.90;;;3.50;;
43606;SDS011;29197;44.788;10.366;2023-05-10T05:52:23;4.70;;;3.70;;
43606;SDS011;29197;44.788;10.366;2023-05-10T05:55:12;5.82;;;3.42;;
43606;SDS011;29197;44.788;10.366;2023-05-10T05:58:01;4.32;;;3.80;;
43606;SDS011;29197;44.788;10.366;2023-05-10T06:00:50;4.17;;;3.40;;
43606;SDS011;29197;44.788;10.366;2023-05-10T06:03:39;3.75;;;3.42;;
43606;SDS011;29197;44.788;10.366;2023-05-10T06:06:29;3.63;;;3.30;;
43606;SDS011;29197;44.788;10.366;2023-05-10T06:09:18;4.38;;;3.45;;
43606;SDS011;29197;44.788;10.366;2023-05-10T06:12:07;4.72;;;3.50;;
43606;SDS011;29197;44.788;10.366;2023-05-10T06:14:55;4.17;;;3.40;;
43606;SDS011;29197;44.788;10.366;2023-05-10T06:17:44;5.07;;;3.70;;
43606;SDS011;29197;44.788;10.366;2023-05-10T06:20:33;4.50;;;3.70;;
43606;SDS011;29197;44.788;10.366;2023-05-10T06:23:23;5.93;;;4.05;;
43606;SDS011;29197;44.788;10.366;2023-05-10T06:26:13;3.83;;;3.40;;
43606;SDS011;29197;44.788;10.366;2023-05-10T06:29:01;4.55;;;3.10;;
43606;SDS011;29197;44.788;10.366;2023-05-10T06:31:50;4.20;;;3.33;;
43606;SDS011;29197;44.788;10.366;2023-05-10T06:34:38;5.87;;;3.70;;
43606;SDS011;29197;44.788;10.366;2023-05-10T06:37:27;4.70;;;3.60;;
43606;SDS011;29197;44.788;10.366;2023-05-10T06:40:17;5.78;;;4.10;;
43606;SDS011;29197;44.788;10.366;2023-05-10T06:43:06;4.93;;;4.18;;
43606;SDS011;29197;44.788;10.366;2023-05-10T06:45:54;6.13;;;3.90;;
43606;SDS011;29197;44.788;10.366;2023-05-10T06:48:43;6.20;;;4.45;;
43606;SDS011;29197;44.788;10.366;2023-05-10T06:51:32;4.80;;;4.30;;
43606;SDS011;29197;44.788;10.366;2023-05-10T06:54:20;4.82;;;3.97;;
43606;SDS011;29197;44.788;10.366;2023-05-10T06:57:11;3.65;;;3.10;;
43606;SDS011;29197;44.788;10.366;2023-05-10T07:00:17;3.60;;;3.20;;
43606;SDS011;29197;44.788;10.366;2023-05-10T07:03:06;4.30;;;3.50;;
43606;SDS011;29197;44.788;10.366;2023-05-10T07:05:59;5.38;;;3.70;;
43606;SDS011;29197;44.788;10.366;2023-05-10T07:08:49;4.53;;;3.37;;
43606;SDS011;29197;44.788;10.366;2023-05-10T07:11:38;4.85;;;3.35;;
43606;SDS011;29197;44.788;10.366;2023-05-10T07:14:28;4.55;;;3.58;;
43606;SDS011;29197;44.788;10.366;2023-05-10T07:17:16;4.25;;;3.20;;
43606;SDS011;29197;44.788;10.366;2023-05-10T07:20:06;4.10;;;3.22;;
43606;SDS011;29197;44.788;10.366;2023-05-10T07:22:55;3.85;;;3.13;;
43606;SDS011;29197;44.788;10.366;2023-05-10T07:25:44;3.72;;;3.08;;
43606;SDS011;29197;44.788;10.366;2023-05-10T07:28:33;4.13;;;3.30;;
43606;SDS011;29197;44.788;10.366;2023-05-10T07:31:25;3.60;;;2.88;;
43606;SDS011;29197;44.788;10.366;2023-05-10T07:34:13;4.55;;;2.97;;
43606;SDS011;29197;44.788;10.366;2023-05-10T07:37:02;5.23;;;3.30;;
43606;SDS011;29197;44.788;10.366;2023-05-10T07:39:52;4.15;;;3.25;;
43606;SDS011;29197;44.788;10.366;2023-05-10T07:42:41;3.28;;;2.97;;
43606;SDS011;29197;44.788;10.366;2023-05-10T07:45:29;3.70;;;3.30;;
43606;SDS011;29197;44.788;10.366;2023-05-10T07:48:19;3.70;;;3.17;;
43606;SDS011;29197;44.788;10.366;2023-05-10T07:51:08;3.67;;;3.38;;
43606;SDS011;29197;44.788;10.366;2023-05-10T07:53:57;4.53;;;3.47;;
43606;SDS011;29197;44.788;10.366;2023-05-10T07:56:45;3.92;;;3.20;;
43606;SDS011;29197;44.788;10.366;2023-05-10T07:59:34;3.70;;;2.83;;
43606;SDS011;29197;44.788;10.366;2023-05-10T08:02:23;3.75;;;2.67;;
43606;SDS011;29197;44.788;10.366;2023-05-10T08:05:13;3.67;;;3.10;;
43606;SDS011;29197;44.788;10.366;2023-05-10T08:08:02;5.22;;;3.40;;
43606;SDS011;29197;44.788;10.366;2023-05-10T08:10:51;3.47;;;2.95;;
43606;SDS011;29197;44.788;10.366;2023-05-10T08:13:40;3.92;;;3.33;;
43606;SDS011;29197;44.788;10.366;2023-05-10T08:16:28;4.72;;;2.95;;
43606;SDS011;29197;44.788;10.366;2023-05-10T08:19:17;3.40;;;3.05;;
43606;SDS011;29197;44.788;10.366;2023-05-10T08:22:09;3.65;;;2.88;;
43606;SDS011;29197;44.788;10.366;2023-05-10T08:24:57;3.03;;;2.72;;
43606;SDS011;29197;44.788;10.366;2023-05-10T08:27:46;3.03;;;2.72;;
43606;SDS011;29197;44.788;10.366;2023-05-10T08:30:34;2.55;;;2.35;;
43606;SDS011;29197;44.788;10.366;2023-05-10T08:33:23;4.17;;;3.20;;
43606;SDS011;29197;44.788;10.366;2023-05-10T08:36:11;3.10;;;2.80;;
43606;SDS011;29197;44.788;10.366;2023-05-10T08:39:07;4.22;;;3.03;;
43606;SDS011;29197;44.788;10.366;2023-05-10T08:42:15;3.60;;;3.00;;
43606;SDS011;29197;44.788;10.366;2023-05-10T08:45:07;3.60;;;2.60;;
43606;SDS011;29197;44.788;10.366;2023-05-10T08:47:57;3.67;;;2.80;;
43606;SDS011;29197;44.788;10.366;2023-05-10T08:50:47;4.32;;;2.95;;
43606;SDS011;29197;44.788;10.366;2023-05-10T08:53:37;3.63;;;3.08;;
43606;SDS011;29197;44.788;10.366;2023-05-10T08:56:27;3.65;;;2.80;;
43606;SDS011;29197;44.788;10.366;2023-05-10T08:59:15;3.00;;;2.70;;
43606;SDS011;29197;44.788;10.366;2023-05-10T09:02:04;4.90;;;3.33;;
43606;SDS011;29197;44.788;10.366;2023-05-10T09:04:53;5.13;;;3.25;;
43606;SDS011;29197;44.788;10.366;2023-05-10T09:07:41;4.00;;;3.00;;
43606;SDS011;29197;44.788;10.366;2023-05-10T09:10:30;3.08;;;2.60;;
43606;SDS011;29197;44.788;10.366;2023-05-10T09:13:21;4.47;;;3.88;;
43606;SDS011;29197;44.788;10.366;2023-05-10T09:16:10;5.18;;;3.20;;
43606;SDS011;29197;44.788;10.366;2023-05-10T09:19:07;4.63;;;3.50;;
43606;SDS011;29197;44.788;10.366;2023-05-10T09:21:56;3.38;;;2.95;;
43606;SDS011;29197;44.788;10.366;2023-05-10T09:24:46;3.20;;;2.65;;
43606;SDS011;29197;44.788;10.366;2023-05-10T09:27:36;3.85;;;3.00;;
43606;SDS011;29197;44.788;10.366;2023-05-10T09:30:27;4.22;;;2.97;;
43606;SDS011;29197;44.788;10.366;2023-05-10T09:33:16;2.75;;;2.50;;
43606;SDS011;29197;44.788;10.366;2023-05-10T09:36:06;3.55;;;2.65;;
43606;SDS011;29197;44.788;10.366;2023-05-10T09:38:55;4.13;;;2.60;;
43606;SDS011;29197;44.788;10.366;2023-05-10T09:41:45;3.10;;;2.47;;
43606;SDS011;29197;44.788;10.366;2023-05-10T09:44:33;2.87;;;2.53;;
43606;SDS011;29197;44.788;10.366;2023-05-10T09:47:24;4.10;;;2.75;;
43606;SDS011;29197;44.788;10.366;2023-05-10T09:50:13;2.40;;;2.20;;
43606;SDS011;29197;44.788;10.366;2023-05-10T09:53:02;3.35;;;2.30;;
43606;SDS011;29197;44.788;10.366;2023-05-10T09:55:51;2.88;;;2.40;;
43606;SDS011;29197;44.788;10.366;2023-05-10T09:58:39;2.50;;;2.30;;
43606;SDS011;29197;44.788;10.366;2023-05-10T10:01:28;2.50;;;2.30;;
43606;SDS011;29197;44.788;10.366;2023-05-10T10:04:19;2.65;;;2.17;;
43606;SDS011;29197;44.788;10.366;2023-05-10T10:07:08;3.20;;;1.95;;
43606;SDS011;29197;44.788;10.366;2023-05-10T10:09:56;3.20;;;2.47;;
43606;SDS011;29197;44.788;10.366;2023-05-10T10:12:46;2.10;;;1.90;;
43606;SDS011;29197;44.788;10.366;2023-05-10T10:15:35;2.55;;;2.00;;
43606;SDS011;29197;44.788;10.366;2023-05-10T10:18:24;2.10;;;1.90;;
43606;SDS011;29197;44.788;10.366;2023-05-10T10:21:16;2.22;;;1.90;;
43606;SDS011;29197;44.788;10.366;2023-05-10T10:24:05;2.25;;;2.00;;
43606;SDS011;29197;44.788;10.366;2023-05-10T10:26:55;2.22;;;2.00;;
43606;SDS011;29197;44.788;10.366;2023-05-10T10:29:52;2.28;;;2.08;;
43606;SDS011;29197;44.788;10.366;2023-05-10T10:32:57;2.20;;;2.00;;
43606;SDS011;29197;44.788;10.366;2023-05-10T10:36:06;2.60;;;2.40;;
43606;SDS011;29197;44.788;10.366;2023-05-10T10:38:57;2.50;;;2.28;;
43606;SDS011;29197;44.788;10.366;2023-05-10T10:41:50;2.95;;;2.60;;
43606;SDS011;29197;44.788;10.366;2023-05-10T10:44:39;2.65;;;2.10;;
43606;SDS011;29197;44.788;10.366;2023-05-10T10:47:28;6.00;;;2.58;;
43606;SDS011;29197;44.788;10.366;2023-05-10T10:50:19;2.53;;;2.33;;
43606;SDS011;29197;44.788;10.366;2023-05-10T10:53:10;2.67;;;2.20;;
43606;SDS011;29197;44.788;10.366;2023-05-10T10:56:06;3.70;;;2.60;;
43606;SDS011;29197;44.788;10.366;2023-05-10T10:58:58;3.13;;;2.27;;
43606;SDS011;29197;44.788;10.366;2023-05-10T11:01:51;2.28;;;1.95;;
43606;SDS011;29197;44.788;10.366;2023-05-10T11:04:43;2.10;;;1.90;;
43606;SDS011;29197;44.788;10.366;2023-05-10T11:07:33;2.25;;;2.03;;
43606;SDS011;29197;44.788;10.366;2023-05-10T11:10:21;2.95;;;2.13;;
43606;SDS011;29197;44.788;10.366;2023-05-10T11:13:12;2.28;;;2.05;;
43606;SDS011;29197;44.788;10.366;2023-05-10T11:16:09;2.35;;;2.15;;
43606;SDS011;29197;44.788;10.366;2023-05-10T11:19:01;4.47;;;2.28;;
43606;SDS011;29197;44.788;10.366;2023-05-10T11:25:00;2.25;;;2.05;;
43606;SDS011;29197;44.788;10.366;2023-05-10T11:27:49;2.20;;;2.00;;
43606;SDS011;29197;44.788;10.366;2023-05-10T11:30:40;2.83;;;2.25;;
43606;SDS011;29197;44.788;10.366;2023-05-10T11:33:30;2.43;;;1.97;;
43606;SDS011;29197;44.788;10.366;2023-05-10T11:36:32;2.50;;;2.30;;
43606;SDS011;29197;44.788;10.366;2023-05-10T11:39:25;2.10;;;1.90;;
43606;SDS011;29197;44.788;10.366;2023-05-10T11:42:14;2.50;;;2.30;;
43606;SDS011;29197;44.788;10.366;2023-05-10T11:45:02;2.28;;;2.08;;
43606;SDS011;29197;44.788;10.366;2023-05-10T11:47:53;2.20;;;2.00;;
43606;SDS011;29197;44.788;10.366;2023-05-10T11:50:41;2.53;;;2.20;;
43606;SDS011;29197;44.788;10.366;2023-05-10T11:53:32;2.42;;;2.10;;
43606;SDS011;29197;44.788;10.366;2023-05-10T11:56:21;2.40;;;2.20;;
43606;SDS011;29197;44.788;10.366;2023-05-10T11:59:10;3.28;;;2.15;;
43606;SDS011;29197;44.788;10.366;2023-05-10T12:02:01;3.10;;;2.40;;
43606;SDS011;29197;44.788;10.366;2023-05-10T12:04:52;2.80;;;2.28;;
43606;SDS011;29197;44.788;10.366;2023-05-10T12:07:40;2.50;;;2.30;;
43606;SDS011;29197;44.788;10.366;2023-05-10T12:10:29;2.55;;;2.30;;
43606;SDS011;29197;44.788;10.366;2023-05-10T12:13:22;3.30;;;2.70;;
43606;SDS011;29197;44.788;10.366;2023-05-10T12:16:14;3.47;;;2.20;;
43606;SDS011;29197;44.788;10.366;2023-05-10T12:19:04;2.60;;;2.20;;
43606;SDS011;29197;44.788;10.366;2023-05-10T12:21:54;2.55;;;2.20;;
43606;SDS011;29197;44.788;10.366;2023-05-10T12:24:43;2.60;;;2.40;;
43606;SDS011;29197;44.788;10.366;2023-05-10T12:27:33;2.75;;;2.45;;
43606;SDS011;29197;44.788;10.366;2023-05-10T12:30:22;2.93;;;2.23;;
43606;SDS011;29197;44.788;10.366;2023-05-10T12:33:12;3.03;;;2.72;;
43606;SDS011;29197;44.788;10.366;2023-05-10T12:36:03;2.83;;;2.55;;
43606;SDS011;29197;44.788;10.366;2023-05-10T12:38:59;2.70;;;2.50;;
43606;SDS011;29197;44.788;10.366;2023-05-10T12:41:51;2.75;;;2.40;;
43606;SDS011;29197;44.788;10.366;2023-05-10T12:44:40;3.08;;;2.50;;
43606;SDS011;29197;44.788;10.366;2023-05-10T12:47:28;2.65;;;2.40;;
43606;SDS011;29197;44.788;10.366;2023-05-10T12:50:17;2.67;;;2.47;;
43606;SDS011;29197;44.788;10.366;2023-05-10T12:53:06;2.97;;;2.55;;
43606;SDS011;29197;44.788;10.366;2023-05-10T12:55:56;2.45;;;2.25;;
43606;SDS011;29197;44.788;10.366;2023-05-10T12:58:44;2.43;;;2.23;;
43606;SDS011;29197;44.788;10.366;2023-05-10T13:01:34;2.30;;;2.10;;
43606;SDS011;29197;44.788;10.366;2023-05-10T13:04:23;2.50;;;2.30;;
43606;SDS011;29197;44.788;10.366;2023-05-10T13:07:12;3.40;;;2.38;;
43606;SDS011;29197;44.788;10.366;2023-05-10T13:10:01;2.27;;;2.07;;
43606;SDS011;29197;44.788;10.366;2023-05-10T13:12:50;2.47;;;2.17;;
43606;SDS011;29197;44.788;10.366;2023-05-10T13:15:39;2.90;;;2.10;;
43606;SDS011;29197;44.788;10.366;2023-05-10T13:18:27;2.95;;;2.22;;
43606;SDS011;29197;44.788;10.366;2023-05-10T13:21:16;3.20;;;2.23;;
43606;SDS011;29197;44.788;10.366;2023-05-10T13:24:04;2.95;;;2.15;;
43606;SDS011;29197;44.788;10.366;2023-05-10T13:26:53;2.30;;;2.10;;
43606;SDS011;29197;44.788;10.366;2023-05-10T13:29:43;2.88;;;2.42;;
43606;SDS011;29197;44.788;10.366;2023-05-10T13:32:34;2.25;;;2.05;;
43606;SDS011;29197;44.788;10.366;2023-05-10T13:35:23;2.28;;;2.08;;
43606;SDS011;29197;44.788;10.366;2023-05-10T13:38:12;2.30;;;2.08;;
43606;SDS011;29197;44.788;10.366;2023-05-10T13:41:01;2.60;;;2.23;;
43606;SDS011;29197;44.788;10.366;2023-05-10T13:43:49;2.60;;;2.13;;
43606;SDS011;29197;44.788;10.366;2023-05-10T13:46:39;2.20;;;1.85;;
43606;SDS011;29197;44.788;10.366;2023-05-10T13:49:28;2.13;;;1.90;;
43606;SDS011;29197;44.788;10.366;2023-05-10T13:52:17;1.90;;;1.70;;
43606;SDS011;29197;44.788;10.366;2023-05-10T13:55:05;2.13;;;1.92;;
43606;SDS011;29197;44.788;10.366;2023-05-10T13:57:54;2.30;;;2.10;;
43606;SDS011;29197;44.788;10.366;2023-05-10T14:00:43;2.13;;;1.92;;
43606;SDS011;29197;44.788;10.366;2023-05-10T14:03:33;2.07;;;1.97;;
43606;SDS011;29197;44.788;10.366;2023-05-10T14:06:21;2.40;;;2.20;;
43606;SDS011;29197;44.788;10.366;2023-05-10T14:09:10;2.53;;;1.93;;
43606;SDS011;29197;44.788;10.366;2023-05-10T14:11:59;2.05;;;1.85;;
43606;SDS011;29197;44.788;10.366;2023-05-10T14:14:48;2.20;;;2.00;;
43606;SDS011;29197;44.788;10.366;2023-05-10T14:17:37;2.23;;;2.03;;
43606;SDS011;29197;44.788;10.366;2023-05-10T14:20:27;2.40;;;2.15;;
43606;SDS011;29197;44.788;10.366;2023-05-10T14:23:15;2.67;;;2.38;;
43606;SDS011;29197;44.788;10.366;2023-05-10T14:26:03;3.58;;;2.83;;
43606;SDS011;29197;44.788;10.366;2023-05-10T14:28:52;2.65;;;2.45;;
43606;SDS011;29197;44.788;10.366;2023-05-10T14:31:41;3.17;;;2.58;;
43606;SDS011;29197;44.788;10.366;2023-05-10T14:34:30;2.57;;;2.37;;
43606;SDS011;29197;44.788;10.366;2023-05-10T14:37:19;2.90;;;2.60;;
43606;SDS011;29197;44.788;10.366;2023-05-10T14:40:08;2.93;;;2.60;;
43606;SDS011;29197;44.788;10.366;2023-05-10T14:42:58;2.85;;;2.40;;
43606;SDS011;29197;44.788;10.366;2023-05-10T14:45:46;2.92;;;2.65;;
43606;SDS011;29197;44.788;10.366;2023-05-10T14:48:35;2.85;;;2.28;;
43606;SDS011;29197;44.788;10.366;2023-05-10T14:51:23;2.97;;;2.63;;
43606;SDS011;29197;44.788;10.366;2023-05-10T14:54:13;2.70;;;2.40;;
43606;SDS011;29197;44.788;10.366;2023-05-10T14:57:02;3.00;;;2.70;;
43606;SDS011;29197;44.788;10.366;2023-05-10T14:59:50;4.57;;;2.35;;
43606;SDS011;29197;44.788;10.366;2023-05-10T15:02:39;2.67;;;2.47;;
43606;SDS011;29197;44.788;10.366;2023-05-10T15:05:28;2.65;;;2.40;;
43606;SDS011;29197;44.788;10.366;2023-05-10T15:08:17;3.85;;;2.65;;
43606;SDS011;29197;44.788;10.366;2023-05-10T15:11:07;3.33;;;2.57;;
43606;SDS011;29197;44.788;10.366;2023-05-10T15:13:56;2.92;;;2.60;;
43606;SDS011;29197;44.788;10.366;2023-05-10T15:16:44;3.38;;;2.80;;
43606;SDS011;29197;44.788;10.366;2023-05-10T15:19:33;3.35;;;2.80;;
43606;SDS011;29197;44.788;10.366;2023-05-10T15:22:22;3.00;;;2.75;;
43606;SDS011;29197;44.788;10.366;2023-05-10T15:25:11;3.40;;;3.00;;
43606;SDS011;29197;44.788;10.366;2023-05-10T15:28:01;3.95;;;3.30;;
43606;SDS011;29197;44.788;10.366;2023-05-10T15:30:49;3.10;;;2.80;;
43606;SDS011;29197;44.788;10.366;2023-05-10T15:33:38;3.53;;;3.10;;
43606;SDS011;29197;44.788;10.366;2023-05-10T15:36:26;3.57;;;3.27;;
43606;SDS011;29197;44.788;10.366;2023-05-10T15:39:15;3.33;;;3.03;;
43606;SDS011;29197;44.788;10.366;2023-05-10T15:42:03;3.38;;;3.08;;
43606;SDS011;29197;44.788;10.366;2023-05-10T15:44:53;3.40;;;3.10;;
43606;SDS011;29197;44.788;10.366;2023-05-10T15:47:41;4.30;;;3.10;;
43606;SDS011;29197;44.788;10.366;2023-05-10T15:50:30;3.80;;;3.20;;
43606;SDS011;29197;44.788;10.366;2023-05-10T15:53:19;3.65;;;3.28;;
43606;SDS011;29197;44.788;10.366;2023-05-10T15:56:07;3.97;;;3.30;;
43606;SDS011;29197;44.788;10.366;2023-05-10T15:58:56;3.40;;;3.10;;
43606;SDS011;29197;44.788;10.366;2023-05-10T16:01:46;3.40;;;3.10;;
43606;SDS011;29197;44.788;10.366;2023-05-10T16:04:35;3.35;;;3.03;;
43606;SDS011;29197;44.788;10.366;2023-05-10T16:07:24;3.55;;;3.10;;
43606;SDS011;29197;44.788;10.366;2023-05-10T16:10:13;3.40;;;3.10;;
43606;SDS011;29197;44.788;10.366;2023-05-10T16:13:02;3.10;;;2.80;;
43606;SDS011;29197;44.788;10.366;2023-05-10T16:15:52;3.40;;;3.10;;
43606;SDS011;29197;44.788;10.366;2023-05-10T16:18:42;3.13;;;2.83;;
43606;SDS011;29197;44.788;10.366;2023-05-10T16:21:31;3.35;;;3.00;;
43606;SDS011;29197;44.788;10.366;2023-05-10T16:24:20;3.67;;;3.23;;
43606;SDS011;29197;44.788;10.366;2023-05-10T16:27:08;3.42;;;3.03;;
43606;SDS011;29197;44.788;10.366;2023-05-10T16:29:58;3.50;;;3.10;;
43606;SDS011;29197;44.788;10.366;2023-05-10T16:32:47;3.15;;;2.85;;
43606;SDS011;29197;44.788;10.366;2023-05-10T16:35:37;3.63;;;3.27;;
43606;SDS011;29197;44.788;10.366;2023-05-10T16:38:26;4.18;;;3.40;;
43606;SDS011;29197;44.788;10.366;2023-05-10T16:41:14;5.10;;;4.30;;
43606;SDS011;29197;44.788;10.366;2023-05-10T16:44:03;6.25;;;5.25;;
43606;SDS011;29197;44.788;10.366;2023-05-10T16:46:51;4.10;;;3.57;;
43606;SDS011;29197;44.788;10.366;2023-05-10T16:49:40;5.30;;;4.03;;
43606;SDS011;29197;44.788;10.366;2023-05-10T16:52:30;5.23;;;4.70;;
43606;SDS011;29197;44.788;10.366;2023-05-10T16:55:19;3.70;;;3.40;;